Weather History for KCBK - November, 2013

Change the Weather History Date:

Sunday, November 3, 2013

  Actual Average (KGLD) Record (KGLD)
Temperature  
Mean Temperature 57 °F 45 °F  
Max Temperature 77 °F 59 °F 82 °F (1915)
Min Temperature 37 °F 31 °F 1 °F (1991)
Degree Days  
Heating Degree Days 8 20  
Month to date heating degree days 59  
Since 1 July heating degree days 599  
Cooling Degree Days 0 0  
Month to date cooling degree days 0  
Year to date cooling degree days 941  
Growing Degree Days 7 (Base 50)    
Moisture  
Dew Point 34 °F    
Average Humidity 55    
Maximum Humidity 81    
Minimum Humidity 21    
Precipitation  
Precipitation 0.00 in 0.03 in 0.66 in (1974)
Month to date precipitation 0.09  
Year to date precipitation 18.58  
Snow  
Snow 0.00 in 0.10 in - ()
Month to date snowfall 0.4  
Since 1 July snowfall 3.0  
Since 1 September snowfall 3.0  
Snow Depth -    
Sea Level Pressure  
Sea Level Pressure 29.65 in    
Wind  
Wind Speed 16 mph (South)    
Max Wind Speed 28 mph    
Max Gust Speed 34 mph    
Visibility 10 miles    
Events      
T = Trace of Precipitation, MM = Missing Value Source: NWS Daily Summary

Daily Weather History Graph

Daily Weather History Graph

Search for Another Location

Airport or City:

Trip Planner

Search our weather history database for the weather conditions in past years. The results will help you decide how hot, cold, wet, or windy it might be!

Date:

Astronomy

Nov. 03, 2013 Rise Set
Actual Time 7:14 AM CST 5:40 PM CST
Civil Twilight 6:46 AM CST 6:08 PM CST
Nautical Twilight 6:14 AM CST 6:39 PM CST
Astronomical Twilight 5:43 AM CST 7:11 PM CST
Moon 7:20 AM CST (11/3) 5:56 PM CST (11/3)
Length of Visible Light 11h 21m
Length of Day
10h 25m
New Moon, 0% of the Moon is Illuminated
Nov 3
New Moon
Nov 9
First Quarter
Nov 17
Full
Nov 25
Last Quarter
Dec 2
New

Hourly Weather History & Observations

Time (CST) Temp. Windchill Dew Point Humidity Pressure Visibility Wind Dir Wind Speed Gust Speed Precip Events Conditions
12:15 AM 44.6 °F 36.4 °F 32.0 °F 61% 29.86 in 10.0 mi SSE 20.7 mph 27.6 mph N/A   Clear
12:35 AM 44.6 °F 36.4 °F 32.0 °F 61% 29.84 in 10.0 mi SSE 20.7 mph 26.5 mph N/A   Clear
12:55 AM 44.6 °F 36.6 °F 32.0 °F 61% 29.84 in 10.0 mi South 19.6 mph 27.6 mph N/A   Clear
1:15 AM 44.6 °F 36.9 °F 32.0 °F 61% 29.82 in 10.0 mi SSE 18.4 mph 27.6 mph N/A   Clear
1:35 AM 44.6 °F 36.1 °F 32.0 °F 61% 29.82 in 10.0 mi South 21.9 mph 25.3 mph N/A   Clear
1:55 AM 44.6 °F 36.4 °F 32.0 °F 61% 29.81 in 10.0 mi SSE 20.7 mph 26.5 mph N/A   Clear
1:15 AM 44.6 °F 36.6 °F 32.0 °F 61% 29.81 in 10.0 mi South 19.6 mph 24.2 mph N/A   Clear
1:35 AM 44.6 °F 36.9 °F 32.0 °F 61% 29.80 in 10.0 mi South 18.4 mph 23.0 mph N/A   Clear
1:55 AM 42.8 °F 34.8 °F 32.0 °F 66% 29.79 in 10.0 mi SSE 17.3 mph - N/A   Clear
2:15 AM 42.8 °F 35.4 °F 32.0 °F 66% 29.79 in 10.0 mi SSE 15.0 mph - N/A   Clear
2:35 AM 41.0 °F 33.1 °F 32.0 °F 70% 29.77 in 10.0 mi SSE 15.0 mph - N/A   Clear
2:55 AM 41.0 °F 33.1 °F 32.0 °F 70% 29.76 in 10.0 mi SSE 15.0 mph - N/A   Clear
3:15 AM 41.0 °F 33.5 °F 32.0 °F 70% 29.75 in 10.0 mi South 13.8 mph - N/A   Clear
3:35 AM 42.8 °F 35.4 °F 32.0 °F 66% 29.74 in 10.0 mi South 15.0 mph - N/A   Clear
3:55 AM 42.8 °F 35.4 °F 32.0 °F 66% 29.74 in 10.0 mi South 15.0 mph 21.9 mph N/A   Clear
4:15 AM 42.8 °F 35.1 °F 32.0 °F 66% 29.73 in 10.0 mi South 16.1 mph 24.2 mph N/A   Clear
4:35 AM 42.8 °F 35.4 °F 32.0 °F 66% 29.71 in 10.0 mi South 15.0 mph - N/A   Clear
4:55 AM 42.8 °F 35.8 °F 32.0 °F 66% 29.72 in 10.0 mi South 13.8 mph 21.9 mph N/A   Clear
5:15 AM 42.8 °F 37.5 °F 32.0 °F 66% 29.72 in 10.0 mi South 9.2 mph - N/A   Clear
5:35 AM 42.8 °F 37.0 °F 32.0 °F 66% 29.71 in 10.0 mi SSE 10.4 mph - N/A   Clear
5:55 AM 44.6 °F 38.8 °F 33.8 °F 66% 29.71 in 10.0 mi South 11.5 mph 18.4 mph N/A   Clear
6:15 AM 44.6 °F 39.2 °F 33.8 °F 66% 29.70 in 10.0 mi SSE 10.4 mph - N/A   Clear
6:35 AM 44.6 °F 40.2 °F 33.8 °F 66% 29.70 in 10.0 mi SSE 8.1 mph - N/A   Clear
6:55 AM 44.6 °F 39.7 °F 33.8 °F 66% 29.69 in 10.0 mi SSE 9.2 mph - N/A   Clear
7:15 AM 42.8 °F 37.0 °F 33.8 °F 70% 29.67 in 10.0 mi SSE 10.4 mph - N/A   Clear
7:35 AM 42.8 °F 38.0 °F 33.8 °F 70% 29.67 in 10.0 mi SSE 8.1 mph - N/A   Clear
7:55 AM 44.6 °F 40.7 °F 33.8 °F 66% 29.67 in 10.0 mi South 6.9 mph - N/A   Clear
8:15 AM 44.6 °F 39.2 °F 33.8 °F 66% 29.66 in 10.0 mi SSE 10.4 mph - N/A   Clear
8:35 AM 46.4 °F 40.7 °F 33.8 °F 62% 29.67 in 10.0 mi South 12.7 mph - N/A   Clear
8:55 AM 48.2 °F - 33.8 °F 58% 29.66 in 10.0 mi South 10.4 mph - N/A   Clear
9:15 AM 50.0 °F - 33.8 °F 54% 29.64 in 10.0 mi South 9.2 mph - N/A   Clear
9:35 AM 51.8 °F - 33.8 °F 50% 29.63 in 10.0 mi South 15.0 mph 18.4 mph N/A   Clear
9:55 AM 53.6 °F - 33.8 °F 47% 29.61 in 10.0 mi South 18.4 mph 24.2 mph N/A   Clear
10:15 AM 53.6 °F - 33.8 °F 47% 29.61 in 10.0 mi South 18.4 mph 24.2 mph N/A   Clear
10:35 AM 55.4 °F - 33.8 °F 44% 29.61 in 10.0 mi South 20.7 mph 29.9 mph N/A   Clear
10:55 AM 55.4 °F - 33.8 °F 44% 29.61 in 10.0 mi South 21.9 mph 29.9 mph N/A   Clear
11:15 AM 57.2 °F - 33.8 °F 41% 29.59 in 10.0 mi South 18.4 mph 28.8 mph N/A   Clear
11:35 AM 60.8 °F - 33.8 °F 36% 29.57 in 10.0 mi South 23.0 mph 33.4 mph N/A   Clear
11:55 AM 64.4 °F - 35.6 °F 34% 29.56 in 10.0 mi South 26.5 mph 33.4 mph N/A   Clear
12:15 PM 64.4 °F - 35.6 °F 34% 29.56 in 10.0 mi South 20.7 mph 28.8 mph N/A   Clear
12:35 PM 68.0 °F - 35.6 °F 30% 29.55 in 10.0 mi South 24.2 mph 29.9 mph N/A   Clear
12:55 PM 69.8 °F - 35.6 °F 28% 29.53 in 10.0 mi SSW 24.2 mph 32.2 mph N/A   Clear
1:15 PM 71.6 °F - 35.6 °F 27% 29.52 in 10.0 mi SSW 26.5 mph 33.4 mph N/A   Clear
1:35 PM 71.6 °F - 33.8 °F 25% 29.52 in 10.0 mi SSW 21.9 mph 32.2 mph N/A   Clear
1:55 PM 71.6 °F - 35.6 °F 27% 29.52 in 10.0 mi South 17.3 mph 27.6 mph N/A   Clear
2:15 PM 77.0 °F - 33.8 °F 21% 29.51 in 10.0 mi SSW 27.6 mph 34.5 mph N/A   Clear
2:35 PM 71.6 °F - 35.6 °F 27% 29.53 in 10.0 mi WNW 17.3 mph 26.5 mph N/A   Clear
2:55 PM 68.0 °F - 35.6 °F 30% 29.54 in 10.0 mi NNW 5.8 mph - N/A   Clear
3:15 PM 69.8 °F - 37.4 °F 31% 29.53 in 10.0 mi North 9.2 mph - N/A   Clear
3:35 PM 68.0 °F - 37.4 °F 33% 29.55 in 10.0 mi NNW 6.9 mph - N/A   Clear
3:55 PM 68.0 °F - 35.6 °F 30% 29.56 in 10.0 mi North 4.6 mph - N/A   Clear
4:15 PM 66.2 °F - 35.6 °F 32% 29.55 in 10.0 mi WNW 8.1 mph - N/A   Clear
4:35 PM 64.4 °F - 35.6 °F 34% 29.56 in 10.0 mi NW 9.2 mph - N/A   Clear
4:55 PM 64.4 °F - 35.6 °F 34% 29.56 in 10.0 mi NW 9.2 mph - N/A   Clear
5:15 PM 59.0 °F - 33.8 °F 39% 29.56 in 10.0 mi NW 8.1 mph - N/A   Clear
5:35 PM 51.8 °F - 33.8 °F 50% 29.57 in 10.0 mi NW 10.4 mph - N/A   Clear
5:55 PM 50.0 °F - 33.8 °F 54% 29.57 in 10.0 mi NNW 11.5 mph - N/A   Clear
6:15 PM 51.8 °F - 33.8 °F 50% 29.57 in 10.0 mi NNW 9.2 mph - N/A   Clear
6:35 PM 46.4 °F 41.9 °F 33.8 °F 62% 29.58 in 10.0 mi NNW 9.2 mph - N/A   Clear
6:55 PM 44.6 °F 39.7 °F 32.0 °F 61% 29.59 in 10.0 mi NW 9.2 mph - N/A   Clear
7:15 PM 44.6 °F - 33.8 °F 66% 29.60 in 10.0 mi Calm Calm - N/A   Clear
7:35 PM 41.0 °F 36.4 °F 32.0 °F 70% 29.59 in 10.0 mi North 6.9 mph - N/A   Clear
7:55 PM 46.4 °F 42.4 °F 33.8 °F 62% 29.59 in 10.0 mi North 8.1 mph - N/A   Clear
8:15 PM 42.8 °F 38.6 °F 33.8 °F 70% 29.60 in 10.0 mi North 6.9 mph - N/A   Clear
8:35 PM 42.8 °F 38.0 °F 33.8 °F 70% 29.60 in 10.0 mi North 8.1 mph - N/A   Clear
8:55 PM 41.0 °F 36.4 °F 32.0 °F 70% 29.60 in 10.0 mi NNE 6.9 mph - N/A   Clear
9:15 PM 41.0 °F 35.8 °F 32.0 °F 70% 29.59 in 10.0 mi NNE 8.1 mph - N/A   Clear
9:35 PM 41.0 °F 35.2 °F 33.8 °F 76% 29.59 in 10.0 mi NE 9.2 mph - N/A   Clear
9:55 PM 41.0 °F 34.7 °F 33.8 °F 76% 29.60 in 10.0 mi NNE 10.4 mph - N/A   Clear
10:15 PM 37.4 °F 30.3 °F 32.0 °F 81% 29.60 in 10.0 mi North 10.4 mph - N/A   Clear
10:35 PM 41.0 °F 35.2 °F 33.8 °F 76% 29.60 in 10.0 mi North 9.2 mph - N/A   Clear
10:55 PM 41.0 °F 32.2 °F 33.8 °F 76% 29.62 in 10.0 mi NNW 18.4 mph 25.3 mph N/A   Clear